sensor_id;sensor_type;location;lat;lon;timestamp;P1;durP1;ratioP1;P2;durP2;ratioP2
5391;SDS011;2719;53.624;9.786;2024-01-30T00:00:25;13.20;;;5.73;;
5391;SDS011;2719;53.624;9.786;2024-01-30T00:02:51;13.70;;;7.03;;
5391;SDS011;2719;53.624;9.786;2024-01-30T00:05:18;11.83;;;5.70;;
5391;SDS011;2719;53.624;9.786;2024-01-30T00:07:44;12.63;;;5.50;;
5391;SDS011;2719;53.624;9.786;2024-01-30T00:10:12;10.10;;;6.27;;
5391;SDS011;2719;53.624;9.786;2024-01-30T00:12:39;16.70;;;5.00;;
5391;SDS011;2719;53.624;9.786;2024-01-30T00:15:06;13.03;;;5.37;;
5391;SDS011;2719;53.624;9.786;2024-01-30T00:17:34;9.30;;;5.67;;
5391;SDS011;2719;53.624;9.786;2024-01-30T00:20:03;14.57;;;6.40;;
5391;SDS011;2719;53.624;9.786;2024-01-30T00:22:31;9.93;;;5.80;;
5391;SDS011;2719;53.624;9.786;2024-01-30T00:24:57;9.20;;;5.20;;
5391;SDS011;2719;53.624;9.786;2024-01-30T00:27:25;9.60;;;5.87;;
5391;SDS011;2719;53.624;9.786;2024-01-30T00:29:52;10.70;;;5.67;;
5391;SDS011;2719;53.624;9.786;2024-01-30T00:32:19;16.00;;;5.80;;
5391;SDS011;2719;53.624;9.786;2024-01-30T00:34:45;12.30;;;5.87;;
5391;SDS011;2719;53.624;9.786;2024-01-30T00:37:12;9.57;;;5.77;;
5391;SDS011;2719;53.624;9.786;2024-01-30T00:39:39;10.40;;;5.90;;
5391;SDS011;2719;53.624;9.786;2024-01-30T00:42:05;9.97;;;5.43;;
5391;SDS011;2719;53.624;9.786;2024-01-30T00:44:35;9.20;;;5.10;;
5391;SDS011;2719;53.624;9.786;2024-01-30T00:47:03;16.50;;;5.30;;
5391;SDS011;2719;53.624;9.786;2024-01-30T00:49:30;8.33;;;5.20;;
5391;SDS011;2719;53.624;9.786;2024-01-30T00:51:56;8.87;;;5.20;;
5391;SDS011;2719;53.624;9.786;2024-01-30T00:54:23;12.30;;;4.83;;
5391;SDS011;2719;53.624;9.786;2024-01-30T00:56:50;7.53;;;4.40;;
5391;SDS011;2719;53.624;9.786;2024-01-30T00:59:16;9.40;;;4.40;;
5391;SDS011;2719;53.624;9.786;2024-01-30T01:01:44;7.37;;;4.50;;
5391;SDS011;2719;53.624;9.786;2024-01-30T01:04:11;7.40;;;4.30;;
5391;SDS011;2719;53.624;9.786;2024-01-30T01:06:37;9.77;;;4.10;;
5391;SDS011;2719;53.624;9.786;2024-01-30T01:09:04;8.50;;;4.70;;
5391;SDS011;2719;53.624;9.786;2024-01-30T01:11:32;8.00;;;4.33;;
5391;SDS011;2719;53.624;9.786;2024-01-30T01:13:58;11.60;;;5.57;;
5391;SDS011;2719;53.624;9.786;2024-01-30T01:16:25;11.37;;;4.03;;
5391;SDS011;2719;53.624;9.786;2024-01-30T01:18:53;8.67;;;4.10;;
5391;SDS011;2719;53.624;9.786;2024-01-30T01:21:19;6.80;;;4.03;;
5391;SDS011;2719;53.624;9.786;2024-01-30T01:23:46;7.77;;;4.17;;
5391;SDS011;2719;53.624;9.786;2024-01-30T01:26:13;5.93;;;3.47;;
5391;SDS011;2719;53.624;9.786;2024-01-30T01:28:40;9.50;;;4.30;;
5391;SDS011;2719;53.624;9.786;2024-01-30T01:31:07;10.23;;;4.93;;
5391;SDS011;2719;53.624;9.786;2024-01-30T01:33:33;8.63;;;3.50;;
5391;SDS011;2719;53.624;9.786;2024-01-30T01:36:03;9.00;;;4.03;;
5391;SDS011;2719;53.624;9.786;2024-01-30T01:38:31;10.23;;;4.77;;
5391;SDS011;2719;53.624;9.786;2024-01-30T01:40:58;9.77;;;4.03;;
5391;SDS011;2719;53.624;9.786;2024-01-30T01:43:24;11.13;;;4.57;;
5391;SDS011;2719;53.624;9.786;2024-01-30T01:45:51;8.37;;;4.67;;
5391;SDS011;2719;53.624;9.786;2024-01-30T01:48:18;11.30;;;3.20;;
5391;SDS011;2719;53.624;9.786;2024-01-30T01:50:45;5.73;;;3.67;;
5391;SDS011;2719;53.624;9.786;2024-01-30T01:53:13;6.23;;;3.47;;
5391;SDS011;2719;53.624;9.786;2024-01-30T01:55:41;6.53;;;3.60;;
5391;SDS011;2719;53.624;9.786;2024-01-30T01:58:08;9.90;;;4.37;;
5391;SDS011;2719;53.624;9.786;2024-01-30T02:00:37;11.63;;;4.23;;
5391;SDS011;2719;53.624;9.786;2024-01-30T02:03:04;7.70;;;3.60;;
5391;SDS011;2719;53.624;9.786;2024-01-30T02:05:32;10.57;;;4.47;;
5391;SDS011;2719;53.624;9.786;2024-01-30T02:07:59;9.93;;;4.20;;
5391;SDS011;2719;53.624;9.786;2024-01-30T02:10:27;7.57;;;3.97;;
5391;SDS011;2719;53.624;9.786;2024-01-30T02:12:53;9.17;;;3.90;;
5391;SDS011;2719;53.624;9.786;2024-01-30T02:15:20;12.10;;;5.70;;
5391;SDS011;2719;53.624;9.786;2024-01-30T02:17:47;11.73;;;3.90;;
5391;SDS011;2719;53.624;9.786;2024-01-30T02:20:13;11.23;;;3.70;;
5391;SDS011;2719;53.624;9.786;2024-01-30T02:22:41;9.13;;;4.27;;
5391;SDS011;2719;53.624;9.786;2024-01-30T02:25:09;8.67;;;5.03;;
5391;SDS011;2719;53.624;9.786;2024-01-30T02:27:35;5.77;;;2.73;;
5391;SDS011;2719;53.624;9.786;2024-01-30T02:30:02;5.43;;;3.30;;
5391;SDS011;2719;53.624;9.786;2024-01-30T02:32:30;6.87;;;3.70;;
5391;SDS011;2719;53.624;9.786;2024-01-30T02:34:57;7.87;;;4.10;;
5391;SDS011;2719;53.624;9.786;2024-01-30T02:37:23;6.40;;;3.63;;
5391;SDS011;2719;53.624;9.786;2024-01-30T02:39:51;11.10;;;4.63;;
5391;SDS011;2719;53.624;9.786;2024-01-30T02:42:18;8.00;;;4.00;;
5391;SDS011;2719;53.624;9.786;2024-01-30T02:44:44;7.17;;;3.70;;
5391;SDS011;2719;53.624;9.786;2024-01-30T02:47:11;7.77;;;3.80;;
5391;SDS011;2719;53.624;9.786;2024-01-30T02:49:38;20.13;;;4.50;;
5391;SDS011;2719;53.624;9.786;2024-01-30T02:52:04;9.93;;;4.80;;
5391;SDS011;2719;53.624;9.786;2024-01-30T02:54:31;6.70;;;3.83;;
5391;SDS011;2719;53.624;9.786;2024-01-30T02:56:59;7.57;;;3.27;;
5391;SDS011;2719;53.624;9.786;2024-01-30T02:59:26;7.50;;;4.27;;
5391;SDS011;2719;53.624;9.786;2024-01-30T03:01:52;7.47;;;3.37;;
5391;SDS011;2719;53.624;9.786;2024-01-30T03:04:19;12.50;;;4.20;;
5391;SDS011;2719;53.624;9.786;2024-01-30T03:06:45;7.10;;;3.30;;
5391;SDS011;2719;53.624;9.786;2024-01-30T03:09:12;9.40;;;4.70;;
5391;SDS011;2719;53.624;9.786;2024-01-30T03:11:39;8.87;;;4.30;;
5391;SDS011;2719;53.624;9.786;2024-01-30T03:14:07;11.83;;;4.70;;
5391;SDS011;2719;53.624;9.786;2024-01-30T03:16:35;10.93;;;4.00;;
5391;SDS011;2719;53.624;9.786;2024-01-30T03:19:02;8.83;;;4.40;;
5391;SDS011;2719;53.624;9.786;2024-01-30T03:21:29;7.97;;;4.10;;
5391;SDS011;2719;53.624;9.786;2024-01-30T03:23:55;8.77;;;4.57;;
5391;SDS011;2719;53.624;9.786;2024-01-30T03:26:22;9.00;;;4.10;;
5391;SDS011;2719;53.624;9.786;2024-01-30T03:28:49;8.10;;;4.30;;
5391;SDS011;2719;53.624;9.786;2024-01-30T03:31:17;5.97;;;3.73;;
5391;SDS011;2719;53.624;9.786;2024-01-30T03:33:44;10.73;;;4.57;;
5391;SDS011;2719;53.624;9.786;2024-01-30T03:36:10;6.20;;;4.00;;
5391;SDS011;2719;53.624;9.786;2024-01-30T03:38:37;6.03;;;3.80;;
5391;SDS011;2719;53.624;9.786;2024-01-30T03:41:07;6.90;;;4.00;;
5391;SDS011;2719;53.624;9.786;2024-01-30T03:43:33;13.23;;;4.63;;
5391;SDS011;2719;53.624;9.786;2024-01-30T03:46:00;11.30;;;4.57;;
5391;SDS011;2719;53.624;9.786;2024-01-30T03:48:29;12.40;;;5.47;;
5391;SDS011;2719;53.624;9.786;2024-01-30T03:50:55;11.60;;;4.77;;
5391;SDS011;2719;53.624;9.786;2024-01-30T03:53:22;7.80;;;3.13;;
5391;SDS011;2719;53.624;9.786;2024-01-30T03:55:49;7.87;;;3.60;;
5391;SDS011;2719;53.624;9.786;2024-01-30T03:58:15;6.20;;;3.73;;
5391;SDS011;2719;53.624;9.786;2024-01-30T04:00:42;9.40;;;4.80;;
5391;SDS011;2719;53.624;9.786;2024-01-30T04:03:09;7.53;;;4.67;;
5391;SDS011;2719;53.624;9.786;2024-01-30T04:05:37;10.30;;;5.93;;
5391;SDS011;2719;53.624;9.786;2024-01-30T04:08:04;10.07;;;5.10;;
5391;SDS011;2719;53.624;9.786;2024-01-30T04:10:31;8.37;;;4.20;;
5391;SDS011;2719;53.624;9.786;2024-01-30T04:12:58;9.93;;;4.97;;
5391;SDS011;2719;53.624;9.786;2024-01-30T04:15:24;10.27;;;4.40;;
5391;SDS011;2719;53.624;9.786;2024-01-30T04:17:51;8.50;;;4.23;;
5391;SDS011;2719;53.624;9.786;2024-01-30T04:20:18;11.70;;;4.87;;
5391;SDS011;2719;53.624;9.786;2024-01-30T04:22:46;19.63;;;4.57;;
5391;SDS011;2719;53.624;9.786;2024-01-30T04:25:13;7.50;;;4.47;;
5391;SDS011;2719;53.624;9.786;2024-01-30T04:27:39;9.03;;;4.30;;
5391;SDS011;2719;53.624;9.786;2024-01-30T04:30:07;9.30;;;5.10;;
5391;SDS011;2719;53.624;9.786;2024-01-30T04:32:34;8.47;;;4.70;;
5391;SDS011;2719;53.624;9.786;2024-01-30T04:35:01;5.97;;;3.70;;
5391;SDS011;2719;53.624;9.786;2024-01-30T04:37:28;8.83;;;4.60;;
5391;SDS011;2719;53.624;9.786;2024-01-30T04:39:56;9.70;;;4.77;;
5391;SDS011;2719;53.624;9.786;2024-01-30T04:42:23;9.83;;;4.03;;
5391;SDS011;2719;53.624;9.786;2024-01-30T04:44:49;10.20;;;4.70;;
5391;SDS011;2719;53.624;9.786;2024-01-30T04:47:16;8.10;;;3.90;;
5391;SDS011;2719;53.624;9.786;2024-01-30T04:49:43;7.73;;;4.23;;
5391;SDS011;2719;53.624;9.786;2024-01-30T04:52:09;9.70;;;3.83;;
5391;SDS011;2719;53.624;9.786;2024-01-30T04:54:36;7.27;;;4.40;;
5391;SDS011;2719;53.624;9.786;2024-01-30T04:57:04;10.67;;;4.50;;
5391;SDS011;2719;53.624;9.786;2024-01-30T04:59:34;12.03;;;4.77;;
5391;SDS011;2719;53.624;9.786;2024-01-30T05:02:01;7.80;;;4.70;;
5391;SDS011;2719;53.624;9.786;2024-01-30T05:04:27;10.80;;;4.97;;
5391;SDS011;2719;53.624;9.786;2024-01-30T05:06:54;6.50;;;4.93;;
5391;SDS011;2719;53.624;9.786;2024-01-30T05:09:21;12.00;;;5.50;;
5391;SDS011;2719;53.624;9.786;2024-01-30T05:11:47;9.47;;;5.87;;
5391;SDS011;2719;53.624;9.786;2024-01-30T05:14:15;8.97;;;4.40;;
5391;SDS011;2719;53.624;9.786;2024-01-30T05:16:42;8.67;;;5.20;;
5391;SDS011;2719;53.624;9.786;2024-01-30T05:19:11;9.73;;;6.23;;
5391;SDS011;2719;53.624;9.786;2024-01-30T05:21:38;8.07;;;4.90;;
5391;SDS011;2719;53.624;9.786;2024-01-30T05:24:05;11.67;;;5.83;;
5391;SDS011;2719;53.624;9.786;2024-01-30T05:26:32;13.97;;;5.00;;
5391;SDS011;2719;53.624;9.786;2024-01-30T05:28:59;10.50;;;5.20;;
5391;SDS011;2719;53.624;9.786;2024-01-30T05:31:26;8.37;;;5.17;;
5391;SDS011;2719;53.624;9.786;2024-01-30T05:33:53;12.90;;;4.20;;
5391;SDS011;2719;53.624;9.786;2024-01-30T05:36:20;10.00;;;5.57;;
5391;SDS011;2719;53.624;9.786;2024-01-30T05:38:47;11.53;;;6.27;;
5391;SDS011;2719;53.624;9.786;2024-01-30T05:41:14;10.43;;;5.70;;
5391;SDS011;2719;53.624;9.786;2024-01-30T05:43:40;9.93;;;5.60;;
5391;SDS011;2719;53.624;9.786;2024-01-30T05:46:07;9.67;;;5.43;;
5391;SDS011;2719;53.624;9.786;2024-01-30T05:48:35;10.00;;;5.60;;
5391;SDS011;2719;53.624;9.786;2024-01-30T05:51:02;7.53;;;4.70;;
5391;SDS011;2719;53.624;9.786;2024-01-30T05:53:29;10.53;;;5.30;;
5391;SDS011;2719;53.624;9.786;2024-01-30T05:55:56;12.80;;;5.63;;
5391;SDS011;2719;53.624;9.786;2024-01-30T05:58:22;7.53;;;4.70;;
5391;SDS011;2719;53.624;9.786;2024-01-30T06:00:49;9.23;;;5.03;;
5391;SDS011;2719;53.624;9.786;2024-01-30T06:03:16;10.40;;;4.90;;
5391;SDS011;2719;53.624;9.786;2024-01-30T06:05:44;11.93;;;4.80;;
5391;SDS011;2719;53.624;9.786;2024-01-30T06:08:10;10.93;;;6.27;;
5391;SDS011;2719;53.624;9.786;2024-01-30T06:10:37;11.00;;;5.70;;
5391;SDS011;2719;53.624;9.786;2024-01-30T06:13:04;8.83;;;5.00;;
5391;SDS011;2719;53.624;9.786;2024-01-30T06:15:30;10.93;;;4.97;;
5391;SDS011;2719;53.624;9.786;2024-01-30T06:17:57;14.50;;;5.20;;
5391;SDS011;2719;53.624;9.786;2024-01-30T06:20:24;11.60;;;5.80;;
5391;SDS011;2719;53.624;9.786;2024-01-30T06:22:52;8.50;;;5.00;;
5391;SDS011;2719;53.624;9.786;2024-01-30T06:25:19;9.47;;;5.30;;
5391;SDS011;2719;53.624;9.786;2024-01-30T06:27:45;19.70;;;5.50;;
5391;SDS011;2719;53.624;9.786;2024-01-30T06:30:12;7.40;;;4.30;;
5391;SDS011;2719;53.624;9.786;2024-01-30T06:32:39;11.10;;;6.10;;
5391;SDS011;2719;53.624;9.786;2024-01-30T06:35:06;13.77;;;5.80;;
5391;SDS011;2719;53.624;9.786;2024-01-30T06:37:33;12.03;;;5.57;;
5391;SDS011;2719;53.624;9.786;2024-01-30T06:40:01;10.07;;;5.97;;
5391;SDS011;2719;53.624;9.786;2024-01-30T06:42:29;9.50;;;5.30;;
5391;SDS011;2719;53.624;9.786;2024-01-30T06:44:56;11.43;;;6.47;;
5391;SDS011;2719;53.624;9.786;2024-01-30T06:47:22;10.57;;;5.43;;
5391;SDS011;2719;53.624;9.786;2024-01-30T06:49:49;10.10;;;5.40;;
5391;SDS011;2719;53.624;9.786;2024-01-30T06:52:16;9.30;;;5.40;;
5391;SDS011;2719;53.624;9.786;2024-01-30T06:54:42;10.20;;;5.90;;
5391;SDS011;2719;53.624;9.786;2024-01-30T06:57:10;13.10;;;6.00;;
5391;SDS011;2719;53.624;9.786;2024-01-30T06:59:39;14.47;;;6.73;;
5391;SDS011;2719;53.624;9.786;2024-01-30T07:02:08;11.47;;;5.90;;
5391;SDS011;2719;53.624;9.786;2024-01-30T07:04:35;13.30;;;5.50;;
5391;SDS011;2719;53.624;9.786;2024-01-30T07:07:02;9.37;;;5.10;;
5391;SDS011;2719;53.624;9.786;2024-01-30T07:09:30;10.20;;;5.77;;
5391;SDS011;2719;53.624;9.786;2024-01-30T07:11:57;10.80;;;6.10;;
5391;SDS011;2719;53.624;9.786;2024-01-30T07:14:25;11.37;;;6.10;;
5391;SDS011;2719;53.624;9.786;2024-01-30T07:16:52;15.30;;;6.07;;
5391;SDS011;2719;53.624;9.786;2024-01-30T07:19:18;10.90;;;5.70;;
5391;SDS011;2719;53.624;9.786;2024-01-30T07:21:45;10.93;;;5.70;;
5391;SDS011;2719;53.624;9.786;2024-01-30T07:24:11;17.03;;;7.67;;
5391;SDS011;2719;53.624;9.786;2024-01-30T07:26:38;9.20;;;5.77;;
5391;SDS011;2719;53.624;9.786;2024-01-30T07:29:05;12.77;;;6.30;;
5391;SDS011;2719;53.624;9.786;2024-01-30T07:31:33;11.90;;;5.40;;
5391;SDS011;2719;53.624;9.786;2024-01-30T07:33:59;8.40;;;5.77;;
5391;SDS011;2719;53.624;9.786;2024-01-30T07:36:26;10.00;;;6.27;;
5391;SDS011;2719;53.624;9.786;2024-01-30T07:38:52;10.57;;;5.70;;
5391;SDS011;2719;53.624;9.786;2024-01-30T07:41:20;15.00;;;6.70;;
5391;SDS011;2719;53.624;9.786;2024-01-30T07:43:46;11.60;;;6.03;;
5391;SDS011;2719;53.624;9.786;2024-01-30T07:46:13;11.10;;;6.77;;
5391;SDS011;2719;53.624;9.786;2024-01-30T07:48:41;13.03;;;6.30;;
5391;SDS011;2719;53.624;9.786;2024-01-30T07:51:07;10.50;;;6.30;;
5391;SDS011;2719;53.624;9.786;2024-01-30T07:53:34;12.47;;;6.03;;
5391;SDS011;2719;53.624;9.786;2024-01-30T07:56:01;10.57;;;5.77;;
5391;SDS011;2719;53.624;9.786;2024-01-30T07:58:28;17.47;;;6.63;;
5391;SDS011;2719;53.624;9.786;2024-01-30T08:00:54;12.30;;;6.37;;
5391;SDS011;2719;53.624;9.786;2024-01-30T08:03:23;14.13;;;6.13;;
5391;SDS011;2719;53.624;9.786;2024-01-30T08:05:51;13.17;;;6.83;;
5391;SDS011;2719;53.624;9.786;2024-01-30T08:08:17;10.90;;;6.57;;
5391;SDS011;2719;53.624;9.786;2024-01-30T08:10:44;15.67;;;6.80;;
5391;SDS011;2719;53.624;9.786;2024-01-30T08:13:11;12.43;;;6.30;;
5391;SDS011;2719;53.624;9.786;2024-01-30T08:15:37;12.77;;;7.10;;
5391;SDS011;2719;53.624;9.786;2024-01-30T08:18:04;8.90;;;5.63;;
5391;SDS011;2719;53.624;9.786;2024-01-30T08:20:32;12.73;;;6.07;;
5391;SDS011;2719;53.624;9.786;2024-01-30T08:23:00;13.47;;;6.70;;
5391;SDS011;2719;53.624;9.786;2024-01-30T08:25:26;15.77;;;7.00;;
5391;SDS011;2719;53.624;9.786;2024-01-30T08:27:53;14.50;;;7.40;;
5391;SDS011;2719;53.624;9.786;2024-01-30T08:30:19;13.70;;;7.13;;
5391;SDS011;2719;53.624;9.786;2024-01-30T08:32:46;17.10;;;6.43;;
5391;SDS011;2719;53.624;9.786;2024-01-30T08:35:13;12.20;;;6.87;;
5391;SDS011;2719;53.624;9.786;2024-01-30T08:37:41;11.70;;;6.43;;
5391;SDS011;2719;53.624;9.786;2024-01-30T08:40:09;18.07;;;6.47;;
5391;SDS011;2719;53.624;9.786;2024-01-30T08:42:36;20.43;;;6.30;;
5391;SDS011;2719;53.624;9.786;2024-01-30T08:45:04;18.17;;;6.10;;
5391;SDS011;2719;53.624;9.786;2024-01-30T08:47:31;15.73;;;7.93;;
5391;SDS011;2719;53.624;9.786;2024-01-30T08:49:59;13.83;;;6.97;;
5391;SDS011;2719;53.624;9.786;2024-01-30T08:52:25;10.20;;;5.93;;
5391;SDS011;2719;53.624;9.786;2024-01-30T08:54:52;11.57;;;7.37;;
5391;SDS011;2719;53.624;9.786;2024-01-30T08:57:20;14.60;;;6.80;;
5391;SDS011;2719;53.624;9.786;2024-01-30T08:59:47;12.03;;;6.43;;
5391;SDS011;2719;53.624;9.786;2024-01-30T09:02:14;14.63;;;7.33;;
5391;SDS011;2719;53.624;9.786;2024-01-30T09:04:41;14.60;;;6.60;;
5391;SDS011;2719;53.624;9.786;2024-01-30T09:07:08;10.93;;;5.80;;
5391;SDS011;2719;53.624;9.786;2024-01-30T09:09:35;15.90;;;7.30;;
5391;SDS011;2719;53.624;9.786;2024-01-30T09:12:04;13.10;;;6.37;;
5391;SDS011;2719;53.624;9.786;2024-01-30T09:14:33;9.27;;;5.70;;
5391;SDS011;2719;53.624;9.786;2024-01-30T09:17:00;13.90;;;6.43;;
5391;SDS011;2719;53.624;9.786;2024-01-30T09:19:28;12.87;;;6.50;;
5391;SDS011;2719;53.624;9.786;2024-01-30T09:21:55;12.03;;;6.77;;
5391;SDS011;2719;53.624;9.786;2024-01-30T09:24:21;12.63;;;6.80;;
5391;SDS011;2719;53.624;9.786;2024-01-30T09:26:48;9.90;;;5.80;;
5391;SDS011;2719;53.624;9.786;2024-01-30T09:29:15;12.60;;;5.53;;
5391;SDS011;2719;53.624;9.786;2024-01-30T09:31:44;16.97;;;6.83;;
5391;SDS011;2719;53.624;9.786;2024-01-30T09:34:11;9.63;;;6.37;;
5391;SDS011;2719;53.624;9.786;2024-01-30T09:36:37;15.20;;;7.77;;
5391;SDS011;2719;53.624;9.786;2024-01-30T09:39:05;10.43;;;5.93;;
5391;SDS011;2719;53.624;9.786;2024-01-30T09:41:32;9.87;;;6.23;;
5391;SDS011;2719;53.624;9.786;2024-01-30T09:44:04;11.70;;;5.90;;
5391;SDS011;2719;53.624;9.786;2024-01-30T09:46:33;12.00;;;6.47;;
5391;SDS011;2719;53.624;9.786;2024-01-30T09:49:02;12.63;;;7.43;;
5391;SDS011;2719;53.624;9.786;2024-01-30T09:51:30;12.17;;;6.33;;
5391;SDS011;2719;53.624;9.786;2024-01-30T09:53:57;9.73;;;6.03;;
5391;SDS011;2719;53.624;9.786;2024-01-30T09:56:23;12.07;;;6.17;;
5391;SDS011;2719;53.624;9.786;2024-01-30T09:58:50;12.00;;;6.47;;
5391;SDS011;2719;53.624;9.786;2024-01-30T10:01:17;14.37;;;5.97;;
5391;SDS011;2719;53.624;9.786;2024-01-30T10:03:44;13.30;;;6.00;;
5391;SDS011;2719;53.624;9.786;2024-01-30T10:06:12;11.10;;;6.57;;
5391;SDS011;2719;53.624;9.786;2024-01-30T10:08:41;12.53;;;7.57;;
5391;SDS011;2719;53.624;9.786;2024-01-30T10:11:08;15.10;;;5.67;;
5391;SDS011;2719;53.624;9.786;2024-01-30T10:13:35;17.50;;;7.00;;
5391;SDS011;2719;53.624;9.786;2024-01-30T10:16:02;10.00;;;6.53;;
5391;SDS011;2719;53.624;9.786;2024-01-30T10:18:31;13.37;;;6.47;;
5391;SDS011;2719;53.624;9.786;2024-01-30T10:20:58;16.80;;;6.20;;
5391;SDS011;2719;53.624;9.786;2024-01-30T10:23:26;9.87;;;5.50;;
5391;SDS011;2719;53.624;9.786;2024-01-30T10:25:53;11.37;;;6.83;;
5391;SDS011;2719;53.624;9.786;2024-01-30T10:28:20;12.03;;;7.23;;
5391;SDS011;2719;53.624;9.786;2024-01-30T10:30:56;11.63;;;5.97;;
5391;SDS011;2719;53.624;9.786;2024-01-30T10:33:24;9.63;;;5.77;;
5391;SDS011;2719;53.624;9.786;2024-01-30T10:35:51;9.00;;;5.53;;
5391;SDS011;2719;53.624;9.786;2024-01-30T10:38:18;10.70;;;6.50;;
5391;SDS011;2719;53.624;9.786;2024-01-30T10:40:47;8.70;;;6.07;;
5391;SDS011;2719;53.624;9.786;2024-01-30T10:43:17;12.33;;;6.07;;
5391;SDS011;2719;53.624;9.786;2024-01-30T10:45:47;14.50;;;6.73;;
5391;SDS011;2719;53.624;9.786;2024-01-30T10:48:17;15.00;;;6.40;;
5391;SDS011;2719;53.624;9.786;2024-01-30T10:50:49;15.00;;;7.43;;
5391;SDS011;2719;53.624;9.786;2024-01-30T10:53:19;11.43;;;6.23;;
5391;SDS011;2719;53.624;9.786;2024-01-30T10:55:47;11.67;;;5.97;;
5391;SDS011;2719;53.624;9.786;2024-01-30T10:58:16;11.77;;;6.83;;
5391;SDS011;2719;53.624;9.786;2024-01-30T11:00:44;11.43;;;6.47;;
5391;SDS011;2719;53.624;9.786;2024-01-30T11:03:11;12.80;;;5.93;;
5391;SDS011;2719;53.624;9.786;2024-01-30T11:05:40;13.03;;;7.27;;
5391;SDS011;2719;53.624;9.786;2024-01-30T11:08:10;19.43;;;6.37;;
5391;SDS011;2719;53.624;9.786;2024-01-30T11:10:44;11.03;;;5.70;;
5391;SDS011;2719;53.624;9.786;2024-01-30T11:13:14;13.90;;;6.00;;
5391;SDS011;2719;53.624;9.786;2024-01-30T11:15:41;14.13;;;6.27;;
5391;SDS011;2719;53.624;9.786;2024-01-30T11:18:08;11.37;;;5.80;;
5391;SDS011;2719;53.624;9.786;2024-01-30T11:20:34;12.00;;;6.47;;
5391;SDS011;2719;53.624;9.786;2024-01-30T11:23:01;14.00;;;6.80;;
5391;SDS011;2719;53.624;9.786;2024-01-30T11:25:31;12.33;;;6.43;;
5391;SDS011;2719;53.624;9.786;2024-01-30T11:27:58;15.40;;;5.60;;
5391;SDS011;2719;53.624;9.786;2024-01-30T11:30:27;18.43;;;5.70;;
5391;SDS011;2719;53.624;9.786;2024-01-30T11:32:59;9.43;;;6.10;;
5391;SDS011;2719;53.624;9.786;2024-01-30T11:35:26;10.53;;;5.97;;
5391;SDS011;2719;53.624;9.786;2024-01-30T11:37:53;12.30;;;5.13;;
5391;SDS011;2719;53.624;9.786;2024-01-30T11:40:20;15.70;;;6.80;;
5391;SDS011;2719;53.624;9.786;2024-01-30T11:42:47;13.20;;;6.80;;
5391;SDS011;2719;53.624;9.786;2024-01-30T11:45:15;17.43;;;6.13;;
5391;SDS011;2719;53.624;9.786;2024-01-30T11:47:44;15.67;;;8.20;;
5391;SDS011;2719;53.624;9.786;2024-01-30T11:50:11;15.63;;;6.50;;
5391;SDS011;2719;53.624;9.786;2024-01-30T11:52:38;12.80;;;6.43;;
5391;SDS011;2719;53.624;9.786;2024-01-30T11:55:05;14.60;;;6.20;;
5391;SDS011;2719;53.624;9.786;2024-01-30T11:57:33;13.93;;;6.87;;
5391;SDS011;2719;53.624;9.786;2024-01-30T12:00:00;8.60;;;5.20;;
5391;SDS011;2719;53.624;9.786;2024-01-30T12:02:26;13.50;;;6.80;;
5391;SDS011;2719;53.624;9.786;2024-01-30T12:04:54;12.47;;;7.00;;
5391;SDS011;2719;53.624;9.786;2024-01-30T12:07:21;11.50;;;6.80;;
5391;SDS011;2719;53.624;9.786;2024-01-30T12:09:52;9.20;;;5.47;;
5391;SDS011;2719;53.624;9.786;2024-01-30T12:12:21;12.53;;;5.40;;
5391;SDS011;2719;53.624;9.786;2024-01-30T12:14:48;12.23;;;6.47;;
5391;SDS011;2719;53.624;9.786;2024-01-30T12:17:22;13.50;;;6.80;;
5391;SDS011;2719;53.624;9.786;2024-01-30T12:19:49;11.80;;;6.83;;
5391;SDS011;2719;53.624;9.786;2024-01-30T12:22:17;14.60;;;5.70;;
5391;SDS011;2719;53.624;9.786;2024-01-30T12:24:44;8.20;;;5.30;;
5391;SDS011;2719;53.624;9.786;2024-01-30T12:27:11;11.50;;;6.37;;
5391;SDS011;2719;53.624;9.786;2024-01-30T12:29:41;10.63;;;6.27;;
5391;SDS011;2719;53.624;9.786;2024-01-30T12:32:09;13.30;;;6.20;;
5391;SDS011;2719;53.624;9.786;2024-01-30T12:34:41;10.67;;;6.23;;
5391;SDS011;2719;53.624;9.786;2024-01-30T12:37:08;11.53;;;6.07;;
5391;SDS011;2719;53.624;9.786;2024-01-30T12:39:37;12.40;;;6.20;;
5391;SDS011;2719;53.624;9.786;2024-01-30T12:42:04;13.23;;;6.43;;
5391;SDS011;2719;53.624;9.786;2024-01-30T12:44:31;11.60;;;5.30;;
5391;SDS011;2719;53.624;9.786;2024-01-30T12:46:58;10.53;;;5.20;;
5391;SDS011;2719;53.624;9.786;2024-01-30T12:49:24;10.80;;;5.83;;
5391;SDS011;2719;53.624;9.786;2024-01-30T12:51:51;11.97;;;5.83;;
5391;SDS011;2719;53.624;9.786;2024-01-30T12:54:18;11.97;;;5.80;;
5391;SDS011;2719;53.624;9.786;2024-01-30T12:56:45;9.40;;;5.37;;
5391;SDS011;2719;53.624;9.786;2024-01-30T12:59:12;12.47;;;5.70;;
5391;SDS011;2719;53.624;9.786;2024-01-30T13:01:39;15.30;;;6.40;;
5391;SDS011;2719;53.624;9.786;2024-01-30T13:04:05;10.50;;;6.67;;
5391;SDS011;2719;53.624;9.786;2024-01-30T13:06:32;14.20;;;6.63;;
5391;SDS011;2719;53.624;9.786;2024-01-30T13:08:59;11.17;;;5.50;;
5391;SDS011;2719;53.624;9.786;2024-01-30T13:11:25;14.60;;;6.33;;
5391;SDS011;2719;53.624;9.786;2024-01-30T13:13:53;17.60;;;7.20;;
5391;SDS011;2719;53.624;9.786;2024-01-30T13:16:20;13.33;;;6.20;;
5391;SDS011;2719;53.624;9.786;2024-01-30T13:18:46;13.83;;;6.23;;
5391;SDS011;2719;53.624;9.786;2024-01-30T13:21:13;12.17;;;6.20;;
5391;SDS011;2719;53.624;9.786;2024-01-30T13:23:40;12.23;;;5.50;;
5391;SDS011;2719;53.624;9.786;2024-01-30T13:26:07;10.07;;;6.50;;
5391;SDS011;2719;53.624;9.786;2024-01-30T13:28:33;12.50;;;6.37;;
5391;SDS011;2719;53.624;9.786;2024-01-30T13:31:01;24.83;;;6.40;;
5391;SDS011;2719;53.624;9.786;2024-01-30T13:33:28;12.77;;;6.00;;
5391;SDS011;2719;53.624;9.786;2024-01-30T13:35:54;13.77;;;7.40;;
5391;SDS011;2719;53.624;9.786;2024-01-30T13:38:21;11.33;;;6.20;;
5391;SDS011;2719;53.624;9.786;2024-01-30T13:40:48;10.67;;;5.77;;
5391;SDS011;2719;53.624;9.786;2024-01-30T13:43:14;13.27;;;5.83;;
5391;SDS011;2719;53.624;9.786;2024-01-30T13:45:41;12.53;;;6.17;;
5391;SDS011;2719;53.624;9.786;2024-01-30T13:48:09;10.20;;;5.80;;
5391;SDS011;2719;53.624;9.786;2024-01-30T13:50:35;15.20;;;6.10;;
5391;SDS011;2719;53.624;9.786;2024-01-30T13:53:02;15.97;;;6.73;;
5391;SDS011;2719;53.624;9.786;2024-01-30T13:55:29;12.70;;;5.90;;
5391;SDS011;2719;53.624;9.786;2024-01-30T13:57:56;14.87;;;5.90;;
5391;SDS011;2719;53.624;9.786;2024-01-30T14:00:23;9.60;;;5.30;;
5391;SDS011;2719;53.624;9.786;2024-01-30T14:02:51;10.20;;;5.27;;
5391;SDS011;2719;53.624;9.786;2024-01-30T14:05:20;12.63;;;5.40;;
5391;SDS011;2719;53.624;9.786;2024-01-30T14:07:47;14.53;;;5.37;;
5391;SDS011;2719;53.624;9.786;2024-01-30T14:10:14;14.20;;;6.33;;
5391;SDS011;2719;53.624;9.786;2024-01-30T14:12:41;11.20;;;6.40;;
5391;SDS011;2719;53.624;9.786;2024-01-30T14:15:09;13.07;;;6.57;;
5391;SDS011;2719;53.624;9.786;2024-01-30T14:17:37;10.83;;;6.20;;
5391;SDS011;2719;53.624;9.786;2024-01-30T14:20:04;18.33;;;7.20;;
5391;SDS011;2719;53.624;9.786;2024-01-30T14:22:33;9.30;;;5.93;;
5391;SDS011;2719;53.624;9.786;2024-01-30T14:25:00;14.80;;;6.03;;
5391;SDS011;2719;53.624;9.786;2024-01-30T14:27:28;15.63;;;6.30;;
5391;SDS011;2719;53.624;9.786;2024-01-30T14:29:55;13.47;;;5.80;;
5391;SDS011;2719;53.624;9.786;2024-01-30T14:32:22;14.43;;;6.07;;
5391;SDS011;2719;53.624;9.786;2024-01-30T14:34:49;11.93;;;6.07;;
5391;SDS011;2719;53.624;9.786;2024-01-30T14:37:16;14.10;;;6.10;;
5391;SDS011;2719;53.624;9.786;2024-01-30T14:39:44;9.97;;;5.20;;
5391;SDS011;2719;53.624;9.786;2024-01-30T14:42:10;11.10;;;6.40;;
5391;SDS011;2719;53.624;9.786;2024-01-30T14:44:37;13.97;;;6.17;;
5391;SDS011;2719;53.624;9.786;2024-01-30T14:47:04;11.17;;;6.10;;
5391;SDS011;2719;53.624;9.786;2024-01-30T14:49:31;9.13;;;5.03;;
5391;SDS011;2719;53.624;9.786;2024-01-30T14:51:58;18.87;;;6.43;;
5391;SDS011;2719;53.624;9.786;2024-01-30T14:54:25;15.77;;;7.30;;
5391;SDS011;2719;53.624;9.786;2024-01-30T14:56:53;9.87;;;5.60;;
5391;SDS011;2719;53.624;9.786;2024-01-30T14:59:20;16.37;;;5.97;;
5391;SDS011;2719;53.624;9.786;2024-01-30T15:01:47;13.80;;;6.60;;
5391;SDS011;2719;53.624;9.786;2024-01-30T15:04:14;11.50;;;5.33;;